createdAt,value
2022-09-22T00:01:30.751Z,7.00
2022-09-22T00:04:01.581Z,6.90
2022-09-22T00:06:31.984Z,6.90
2022-09-22T00:09:03.299Z,6.80
2022-09-22T00:11:36.166Z,6.80
2022-09-22T00:14:07.018Z,6.70
2022-09-22T00:16:39.045Z,6.70
2022-09-22T00:19:07.856Z,6.70
2022-09-22T00:21:36.265Z,6.70
2022-09-22T00:24:08.161Z,6.60
2022-09-22T00:26:38.008Z,6.70
2022-09-22T00:29:08.060Z,6.70
2022-09-22T00:31:37.333Z,6.70
2022-09-22T00:34:06.053Z,6.70
2022-09-22T00:36:35.286Z,6.70
2022-09-22T00:39:03.420Z,6.70
2022-09-22T00:41:36.548Z,6.80
2022-09-22T00:44:38.400Z,6.70
2022-09-22T00:47:32.493Z,6.70
2022-09-22T00:50:13.856Z,6.60
2022-09-22T00:52:50.590Z,6.60
2022-09-22T00:55:23.205Z,6.50
2022-09-22T00:57:52.764Z,6.50
2022-09-22T01:00:22.484Z,6.50
2022-09-22T01:02:53.761Z,6.50
2022-09-22T01:05:24.930Z,6.50
2022-09-22T01:08:02.176Z,6.50
2022-09-22T01:10:30.504Z,6.50
2022-09-22T01:13:19.082Z,6.30
2022-09-22T01:16:13.915Z,6.40
2022-09-22T01:18:54.995Z,6.30
2022-09-22T01:21:42.748Z,6.20
2022-09-22T01:24:42.231Z,6.10
2022-09-22T01:27:34.911Z,6.10
2022-09-22T01:30:29.008Z,6.00
2022-09-22T01:33:21.208Z,6.00
2022-09-22T01:35:59.567Z,5.90
2022-09-22T01:38:33.624Z,5.90
2022-09-22T01:41:21.579Z,5.80
2022-09-22T01:43:53.637Z,5.70
2022-09-22T01:46:31.059Z,5.60
2022-09-22T01:49:01.911Z,5.60
2022-09-22T01:51:34.146Z,5.50
2022-09-22T01:54:16.008Z,5.40
2022-09-22T01:56:55.863Z,5.40
2022-09-22T01:59:28.188Z,5.40
2022-09-22T02:02:15.706Z,5.40
2022-09-22T02:04:48.247Z,5.40
2022-09-22T02:07:22.491Z,5.40
2022-09-22T02:09:51.853Z,5.50
2022-09-22T02:12:20.054Z,5.50
2022-09-22T02:14:48.707Z,5.50
2022-09-22T02:17:18.187Z,5.50
2022-09-22T02:19:52.306Z,5.50
2022-09-22T02:22:20.282Z,5.40
2022-09-22T02:24:56.119Z,5.50
2022-09-22T02:27:30.211Z,5.50
2022-09-22T02:30:02.063Z,5.50
2022-09-22T02:32:37.059Z,5.40
2022-09-22T02:35:06.632Z,5.30
2022-09-22T02:37:46.530Z,5.20
2022-09-22T02:40:22.772Z,5.10
2022-09-22T02:43:01.979Z,5.10
2022-09-22T02:45:36.889Z,5.00
2022-09-22T02:48:19.503Z,5.00
2022-09-22T02:50:47.619Z,4.90
2022-09-22T02:53:24.223Z,5.00
2022-09-22T02:55:54.401Z,5.00
2022-09-22T02:58:22.441Z,5.00
2022-09-22T03:00:50.534Z,5.00
2022-09-22T03:03:20.168Z,5.10
2022-09-22T03:05:52.358Z,5.10
2022-09-22T03:08:39.139Z,5.10
2022-09-22T03:11:18.362Z,5.20
2022-09-22T03:13:46.400Z,5.20
2022-09-22T03:16:14.501Z,5.20
2022-09-22T03:18:43.954Z,5.20
2022-09-22T03:21:12.063Z,5.10
2022-09-22T03:23:48.019Z,5.10
2022-09-22T03:26:16.070Z,5.10
2022-09-22T03:28:44.659Z,5.10
2022-09-22T03:31:27.059Z,5.10
2022-09-22T03:33:56.435Z,5.20
2022-09-22T03:36:24.511Z,5.10
2022-09-22T03:38:53.044Z,5.10
2022-09-22T03:41:24.101Z,5.10
2022-09-22T03:43:52.267Z,5.00
2022-09-22T03:46:22.384Z,5.00
2022-09-22T03:49:02.235Z,5.10
2022-09-22T03:51:34.413Z,5.20
2022-09-22T03:54:03.872Z,5.10
2022-09-22T03:56:40.491Z,5.00
2022-09-22T03:59:10.345Z,5.00
2022-09-22T04:01:39.020Z,4.80
2022-09-22T04:04:12.039Z,4.70
2022-09-22T04:06:40.125Z,4.80
2022-09-22T04:09:18.501Z,4.70
2022-09-22T04:11:46.551Z,4.70
2022-09-22T04:14:14.956Z,4.70
2022-09-22T04:16:43.332Z,4.80
2022-09-22T04:19:12.868Z,4.80
2022-09-22T04:21:41.089Z,4.90
2022-09-22T04:24:11.345Z,4.80
2022-09-22T04:26:51.824Z,4.80
2022-09-22T04:29:30.718Z,4.80
2022-09-22T04:31:58.753Z,4.70
2022-09-22T04:34:28.146Z,4.60
2022-09-22T04:36:56.188Z,4.50
2022-09-22T04:39:25.479Z,4.50
2022-09-22T04:41:53.527Z,4.40
2022-09-22T04:44:21.667Z,4.30
2022-09-22T04:46:50.922Z,4.30
2022-09-22T04:49:19.490Z,4.40
2022-09-22T04:51:48.995Z,4.40
2022-09-22T04:54:17.140Z,4.30
2022-09-22T04:56:45.237Z,4.40
2022-09-22T04:59:13.414Z,4.50
2022-09-22T05:01:41.625Z,4.50
2022-09-22T05:04:16.196Z,4.60
2022-09-22T05:07:01.922Z,4.60
2022-09-22T05:09:32.059Z,4.60
2022-09-22T05:12:01.467Z,4.60
2022-09-22T05:14:39.435Z,4.60
2022-09-22T05:17:14.045Z,4.70
2022-09-22T05:19:42.155Z,4.80
2022-09-22T05:22:11.741Z,4.80
2022-09-22T05:24:42.602Z,4.80
2022-09-22T05:27:10.678Z,4.80
2022-09-22T05:29:38.704Z,4.80
2022-09-22T05:32:07.006Z,4.80
2022-09-22T05:34:35.177Z,4.90
2022-09-22T05:37:04.270Z,4.90
2022-09-22T05:39:33.938Z,4.90
2022-09-22T05:42:02.042Z,4.80
2022-09-22T05:44:30.183Z,4.90
2022-09-22T05:46:58.378Z,4.90
2022-09-22T05:49:26.520Z,4.90
2022-09-22T05:51:57.328Z,5.00
2022-09-22T05:54:25.626Z,5.00
2022-09-22T05:56:56.641Z,5.10
2022-09-22T05:59:24.816Z,5.20
2022-09-22T06:01:57.394Z,5.30
2022-09-22T06:04:27.426Z,5.40
2022-09-22T06:06:55.485Z,5.50
2022-09-22T06:09:23.541Z,5.60
2022-09-22T06:11:54.975Z,5.70
2022-09-22T06:14:23.016Z,5.80
2022-09-22T06:16:52.063Z,5.90
2022-09-22T06:19:20.153Z,6.00
2022-09-22T06:21:48.192Z,6.20
2022-09-22T06:24:16.207Z,6.40
2022-09-22T06:26:44.251Z,6.50
2022-09-22T06:29:14.263Z,6.50
2022-09-22T06:31:42.503Z,6.70
2022-09-22T06:34:11.652Z,6.80
2022-09-22T06:36:42.436Z,7.10
2022-09-22T06:39:11.640Z,7.30
2022-09-22T06:41:40.932Z,7.60
2022-09-22T06:44:09.096Z,7.90
2022-09-22T06:46:39.011Z,8.20
2022-09-22T06:49:13.744Z,8.50
2022-09-22T06:51:41.826Z,8.40
2022-09-22T06:54:09.876Z,8.50
2022-09-22T06:56:42.625Z,8.70
2022-09-22T06:59:13.491Z,8.80
2022-09-22T07:01:45.085Z,9.00
2022-09-22T07:04:14.354Z,9.10
2022-09-22T07:06:43.290Z,9.30
2022-09-22T07:09:11.776Z,9.40
2022-09-22T07:11:40.660Z,9.40
2022-09-22T07:14:10.254Z,9.50
2022-09-22T07:16:39.915Z,9.50
2022-09-22T07:19:09.347Z,9.40
2022-09-22T07:21:38.224Z,9.30
2022-09-22T07:24:08.693Z,9.40
2022-09-22T07:26:38.494Z,9.60
2022-09-22T07:29:11.605Z,9.70
2022-09-22T07:31:40.493Z,10.50
2022-09-22T07:34:10.683Z,11.20
2022-09-22T07:36:46.552Z,11.50
2022-09-22T07:39:14.631Z,12.10
2022-09-22T07:41:43.237Z,12.20
2022-09-22T07:44:30.684Z,12.40
2022-09-22T07:46:58.991Z,12.60
2022-09-22T07:49:28.702Z,12.60
2022-09-22T07:51:57.520Z,13.00
2022-09-22T07:54:26.926Z,13.40
2022-09-22T07:56:58.552Z,13.20
2022-09-22T07:59:27.544Z,13.20
2022-09-22T08:01:55.854Z,13.70
2022-09-22T08:04:26.637Z,14.20
2022-09-22T08:06:56.871Z,14.30
2022-09-22T08:09:25.735Z,14.60
2022-09-22T08:11:56.058Z,14.90
2022-09-22T08:14:24.459Z,14.60
2022-09-22T08:16:54.253Z,14.10
2022-09-22T08:19:24.253Z,14.10
2022-09-22T08:21:53.951Z,14.00
2022-09-22T08:24:23.963Z,14.30
2022-09-22T08:26:54.224Z,14.10
2022-09-22T08:29:22.623Z,13.80
2022-09-22T08:31:51.390Z,13.80
2022-09-22T08:34:20.192Z,13.70
2022-09-22T08:36:48.858Z,14.10
2022-09-22T08:39:18.392Z,14.20
2022-09-22T08:42:07.342Z,14.40
2022-09-22T08:44:40.995Z,14.40
2022-09-22T08:47:17.540Z,14.70
2022-09-22T08:50:05.928Z,14.80
2022-09-22T08:52:39.951Z,14.50
2022-09-22T08:55:15.321Z,14.40
2022-09-22T08:58:01.807Z,14.50
2022-09-22T09:00:41.962Z,15.00
2022-09-22T09:03:27.954Z,15.30
2022-09-22T09:06:04.754Z,15.30
2022-09-22T09:09:01.325Z,15.40
2022-09-22T09:11:53.797Z,15.10
2022-09-22T09:14:45.520Z,14.90
2022-09-22T09:17:16.075Z,15.40
2022-09-22T09:19:45.716Z,15.70
2022-09-22T09:22:19.196Z,15.70
2022-09-22T09:27:42.903Z,16.10
2022-09-22T09:30:17.867Z,15.60
2022-09-22T09:32:50.265Z,16.00
2022-09-22T09:35:22.426Z,16.30
2022-09-22T09:37:50.966Z,16.40
2022-09-22T09:40:22.043Z,16.00
2022-09-22T09:42:56.836Z,16.60
2022-09-22T09:45:31.945Z,16.30
2022-09-22T09:48:12.116Z,16.80
2022-09-22T09:50:40.170Z,17.20
2022-09-22T09:53:26.471Z,17.40
2022-09-22T09:56:02.863Z,17.20
2022-09-22T09:58:48.534Z,17.10
2022-09-22T10:01:17.946Z,16.60
2022-09-22T10:03:54.717Z,17.00
2022-09-22T10:06:26.448Z,17.40
2022-09-22T10:08:55.034Z,17.70
2022-09-22T10:11:32.057Z,17.10
2022-09-22T10:14:00.506Z,16.90
2022-09-22T10:16:33.407Z,16.90
2022-09-22T10:19:25.319Z,16.70
2022-09-22T10:21:53.373Z,16.60
2022-09-22T10:24:31.463Z,17.10
2022-09-22T10:27:02.500Z,17.20
2022-09-22T10:29:33.412Z,17.00
2022-09-22T10:32:05.690Z,17.00
2022-09-22T10:34:36.972Z,17.10
2022-09-22T10:37:10.638Z,17.60
2022-09-22T10:39:45.532Z,17.70
2022-09-22T10:42:33.378Z,17.70
2022-09-22T10:45:05.034Z,17.30
2022-09-22T10:47:55.502Z,17.50
2022-09-22T10:50:37.270Z,17.60
2022-09-22T10:53:28.403Z,17.70
2022-09-22T10:56:06.723Z,17.60
2022-09-22T10:58:55.398Z,17.30
2022-09-22T11:01:47.829Z,17.50
2022-09-22T11:04:46.097Z,17.70
2022-09-22T11:08:10.177Z,17.60
2022-09-22T11:11:03.263Z,17.80
2022-09-22T11:13:44.258Z,17.40
2022-09-22T11:16:41.110Z,17.60
2022-09-22T11:19:26.295Z,18.00
2022-09-22T11:22:27.322Z,18.10
2022-09-22T11:25:08.603Z,17.90
2022-09-22T11:27:47.869Z,18.10
2022-09-22T11:30:21.667Z,17.90
2022-09-22T11:33:25.357Z,17.90
2022-09-22T11:36:22.406Z,18.10
2022-09-22T11:39:12.372Z,18.10
2022-09-22T11:41:48.842Z,18.20
2022-09-22T11:44:36.819Z,18.50
2022-09-22T11:47:30.948Z,18.60
2022-09-22T11:50:25.030Z,18.90
2022-09-22T11:53:10.907Z,19.00
2022-09-22T11:55:48.111Z,19.30
2022-09-22T11:58:19.369Z,18.80
2022-09-22T12:00:54.147Z,18.70
2022-09-22T12:03:27.924Z,18.70
2022-09-22T12:05:59.628Z,18.90
2022-09-22T12:08:35.239Z,18.80
2022-09-22T12:11:07.861Z,18.90
2022-09-22T12:13:38.331Z,18.50
2022-09-22T12:16:12.501Z,18.90
2022-09-22T12:18:50.563Z,18.90
2022-09-22T12:21:40.715Z,18.90
2022-09-22T12:24:11.284Z,18.70
2022-09-22T12:26:42.868Z,18.60
2022-09-22T12:29:25.942Z,18.60
2022-09-22T12:31:56.669Z,18.80
2022-09-22T12:34:39.277Z,18.50
2022-09-22T12:37:29.669Z,19.10
2022-09-22T12:40:21.241Z,19.40
2022-09-22T12:42:59.437Z,19.10
2022-09-22T12:45:34.287Z,19.20
2022-09-22T12:48:10.495Z,19.20
2022-09-22T12:50:42.188Z,18.90
2022-09-22T12:53:24.313Z,18.80
2022-09-22T12:55:53.340Z,18.60
2022-09-22T12:58:56.194Z,18.90
2022-09-22T13:01:35.238Z,18.90
2022-09-22T13:04:15.423Z,19.20
2022-09-22T13:07:00.285Z,19.50
2022-09-22T13:09:31.689Z,19.30
2022-09-22T13:12:28.198Z,18.70
2022-09-22T13:15:21.443Z,18.80
2022-09-22T13:17:51.145Z,19.20
2022-09-22T13:20:27.122Z,19.40
2022-09-22T13:23:05.487Z,19.90
2022-09-22T13:25:33.926Z,19.50
2022-09-22T13:28:18.629Z,19.10
2022-09-22T13:31:06.418Z,19.30
2022-09-22T13:33:36.322Z,19.80
2022-09-22T13:36:10.412Z,19.50
2022-09-22T13:38:41.719Z,19.40
2022-09-22T13:41:13.663Z,19.30
2022-09-22T13:43:45.070Z,19.70
2022-09-22T13:46:22.486Z,19.60
2022-09-22T13:48:53.828Z,19.50
2022-09-22T13:51:25.154Z,19.60
2022-09-22T13:53:58.125Z,19.70
2022-09-22T13:56:27.658Z,19.80
2022-09-22T13:59:04.146Z,20.20
2022-09-22T14:01:35.833Z,20.10
2022-09-22T14:04:04.955Z,20.30
2022-09-22T14:06:38.720Z,19.70
2022-09-22T14:09:07.802Z,19.60
2022-09-22T14:11:37.515Z,19.60
2022-09-22T14:14:07.654Z,19.60
2022-09-22T14:16:50.716Z,19.80
2022-09-22T14:19:29.205Z,20.20
2022-09-22T14:21:58.957Z,20.40
2022-09-22T14:24:32.755Z,20.20
2022-09-22T14:27:25.938Z,19.90
2022-09-22T14:29:57.273Z,19.50
2022-09-22T14:32:40.514Z,19.70
2022-09-22T14:35:15.728Z,19.60
2022-09-22T14:37:53.114Z,19.90
2022-09-22T14:40:25.017Z,19.90
2022-09-22T14:43:08.739Z,19.80
2022-09-22T14:45:57.755Z,19.90
2022-09-22T14:48:33.859Z,19.80
2022-09-22T14:51:06.097Z,19.70
2022-09-22T14:53:40.119Z,20.00
2022-09-22T14:56:23.485Z,20.60
2022-09-22T14:58:53.297Z,20.80
2022-09-22T15:01:41.456Z,21.30
2022-09-22T15:04:18.835Z,21.40
2022-09-22T15:06:48.174Z,21.40
2022-09-22T15:09:24.644Z,21.30
2022-09-22T15:11:56.987Z,21.50
2022-09-22T15:14:42.399Z,21.60
2022-09-22T15:17:53.566Z,21.70
2022-09-22T15:20:24.825Z,21.50
2022-09-22T15:23:02.727Z,21.40
2022-09-22T15:25:30.890Z,21.60
2022-09-22T15:28:11.217Z,21.80
2022-09-22T15:30:49.186Z,21.70
2022-09-22T15:33:20.430Z,21.80
2022-09-22T15:35:54.055Z,21.40
2022-09-22T15:38:25.449Z,20.70
2022-09-22T15:40:53.482Z,21.10
2022-09-22T15:43:29.863Z,21.10
2022-09-22T15:46:08.872Z,20.90
2022-09-22T15:48:41.254Z,21.60
2022-09-22T15:51:14.488Z,21.70
2022-09-22T15:53:43.644Z,21.40
2022-09-22T15:56:19.076Z,21.20
2022-09-22T15:58:47.837Z,21.20
2022-09-22T16:01:17.532Z,21.50
2022-09-22T16:03:48.755Z,21.60
2022-09-22T16:06:21.185Z,21.40
2022-09-22T16:08:55.334Z,21.40
2022-09-22T16:11:30.991Z,21.30
2022-09-22T16:14:03.362Z,20.70
2022-09-22T16:16:34.186Z,21.00
2022-09-22T16:19:02.598Z,20.90
2022-09-22T16:21:35.943Z,20.80
2022-09-22T16:24:09.993Z,20.80
2022-09-22T16:26:46.903Z,20.60
2022-09-22T16:29:26.103Z,20.40
2022-09-22T16:31:56.585Z,20.60
2022-09-22T16:34:37.347Z,20.50
2022-09-22T16:37:10.305Z,20.40
2022-09-22T16:39:42.475Z,20.50
2022-09-22T16:42:23.403Z,20.70
2022-09-22T16:44:52.219Z,20.30
2022-09-22T16:47:21.182Z,20.20
2022-09-22T16:49:51.301Z,20.10
2022-09-22T16:52:23.122Z,20.00
2022-09-22T16:54:51.238Z,19.60
2022-09-22T16:57:21.735Z,19.10
2022-09-22T16:59:50.823Z,18.30
2022-09-22T17:02:18.999Z,17.50
2022-09-22T17:04:50.305Z,17.00
2022-09-22T17:07:24.221Z,16.40
2022-09-22T17:09:52.796Z,16.00
2022-09-22T17:12:23.067Z,15.50
2022-09-22T17:14:52.596Z,15.20
2022-09-22T17:17:21.115Z,14.90
2022-09-22T17:19:49.656Z,14.60
2022-09-22T17:22:23.826Z,14.40
2022-09-22T17:24:54.855Z,14.10
2022-09-22T17:27:24.517Z,13.90
2022-09-22T17:29:52.499Z,13.70
2022-09-22T17:32:23.436Z,13.50
2022-09-22T17:34:51.688Z,13.30
2022-09-22T17:37:23.800Z,13.20
2022-09-22T17:40:02.196Z,13.00
2022-09-22T17:42:33.111Z,12.90
2022-09-22T17:45:01.074Z,12.80
2022-09-22T17:47:46.434Z,12.70
2022-09-22T17:50:31.842Z,12.60
2022-09-22T17:53:31.002Z,12.40
2022-09-22T17:56:05.150Z,12.30
2022-09-22T17:58:34.350Z,12.20
2022-09-22T18:01:03.399Z,12.10
2022-09-22T18:03:33.466Z,12.00
2022-09-22T18:06:03.929Z,11.90
2022-09-22T18:08:45.350Z,11.80
2022-09-22T18:11:42.231Z,11.70
2022-09-22T18:14:12.512Z,11.60
2022-09-22T18:16:42.820Z,11.60
2022-09-22T18:19:16.808Z,11.50
2022-09-22T18:21:53.212Z,11.40
2022-09-22T18:24:23.727Z,11.30
2022-09-22T18:27:02.316Z,11.20
2022-09-22T18:29:34.547Z,11.20
2022-09-22T18:32:10.502Z,11.10
2022-09-22T18:34:43.826Z,11.10
2022-09-22T18:37:13.158Z,11.00
2022-09-22T18:39:53.940Z,10.90
2022-09-22T18:42:25.172Z,10.80
2022-09-22T18:44:55.094Z,10.70
2022-09-22T18:47:31.237Z,10.70
2022-09-22T18:50:04.809Z,10.50
2022-09-22T18:52:43.986Z,10.30
2022-09-22T18:55:24.798Z,10.20
2022-09-22T18:57:54.162Z,10.10
2022-09-22T19:00:22.384Z,10.00
2022-09-22T19:02:52.073Z,9.90
2022-09-22T19:05:20.369Z,9.80
2022-09-22T19:07:50.425Z,9.80
2022-09-22T19:10:25.032Z,9.80
2022-09-22T19:13:00.021Z,9.70
2022-09-22T19:15:31.077Z,9.70
2022-09-22T19:17:59.081Z,9.70
2022-09-22T19:20:28.419Z,9.60
2022-09-22T19:22:58.955Z,9.60
2022-09-22T19:25:39.841Z,9.60
2022-09-22T19:28:09.429Z,9.60
2022-09-22T19:30:41.077Z,9.50
2022-09-22T19:33:10.493Z,9.50
2022-09-22T19:35:40.111Z,9.50
2022-09-22T19:38:12.424Z,9.40
2022-09-22T19:40:56.231Z,9.40
2022-09-22T19:43:33.822Z,9.30
2022-09-22T19:46:06.281Z,9.40
2022-09-22T19:48:35.531Z,9.40
2022-09-22T19:51:05.196Z,9.40
2022-09-22T19:53:40.339Z,9.40
2022-09-22T19:56:12.486Z,9.30
2022-09-22T19:58:41.238Z,9.30
2022-09-22T20:01:29.107Z,9.30
2022-09-22T20:04:00.219Z,9.20
2022-09-22T20:06:30.255Z,9.20
2022-09-22T20:09:03.629Z,9.20
2022-09-22T20:11:36.088Z,9.20
2022-09-22T20:14:23.895Z,9.10
2022-09-22T20:17:02.007Z,9.10
2022-09-22T20:19:39.480Z,9.10
2022-09-22T20:22:24.098Z,9.10
2022-09-22T20:24:55.596Z,9.00
2022-09-22T20:27:29.208Z,8.90
2022-09-22T20:29:58.049Z,8.80
2022-09-22T20:32:35.533Z,8.80
2022-09-22T20:35:04.354Z,8.80
2022-09-22T20:37:34.457Z,8.80
2022-09-22T20:40:07.259Z,8.70
2022-09-22T20:42:39.597Z,8.70
2022-09-22T20:45:11.156Z,8.70
2022-09-22T20:47:39.910Z,8.70
2022-09-22T20:50:13.334Z,8.70
2022-09-22T20:52:42.507Z,8.60
2022-09-22T20:55:26.162Z,8.60
2022-09-22T20:58:00.171Z,8.50
2022-09-22T21:00:30.422Z,8.40
2022-09-22T21:03:01.899Z,8.40
2022-09-22T21:05:30.058Z,8.20
2022-09-22T21:08:12.015Z,8.20
2022-09-22T21:10:40.359Z,8.10
2022-09-22T21:13:16.048Z,8.10
2022-09-22T21:15:44.328Z,8.00
2022-09-22T21:18:26.537Z,7.90
2022-09-22T21:21:03.875Z,7.90
2022-09-22T21:23:32.690Z,7.90
2022-09-22T21:26:07.063Z,7.80
2022-09-22T21:28:45.532Z,7.90
2022-09-22T21:31:15.785Z,7.80
2022-09-22T21:33:47.637Z,7.90
2022-09-22T21:36:17.531Z,7.80
2022-09-22T21:38:47.223Z,7.70
2022-09-22T21:41:16.987Z,7.80
2022-09-22T21:43:54.172Z,7.70
2022-09-22T21:46:25.225Z,7.70
2022-09-22T21:48:59.162Z,7.70
2022-09-22T21:51:41.222Z,7.60
2022-09-22T21:54:13.235Z,7.50
2022-09-22T21:56:41.486Z,7.50
2022-09-22T21:59:12.544Z,7.50
2022-09-22T22:01:45.102Z,7.50
2022-09-22T22:04:15.237Z,7.40
2022-09-22T22:06:44.727Z,7.40
2022-09-22T22:09:19.594Z,7.30
2022-09-22T22:11:56.866Z,7.30
2022-09-22T22:14:34.803Z,7.30
2022-09-22T22:17:03.911Z,7.30
2022-09-22T22:19:38.798Z,7.30
2022-09-22T22:22:06.907Z,7.30
2022-09-22T22:24:40.381Z,7.20
2022-09-22T22:27:10.793Z,7.20
2022-09-22T22:29:40.386Z,7.10
2022-09-22T22:32:10.148Z,7.00
2022-09-22T22:34:39.439Z,7.00
2022-09-22T22:37:11.074Z,7.00
2022-09-22T22:39:39.365Z,7.00
2022-09-22T22:42:08.389Z,6.90
2022-09-22T22:44:36.575Z,6.90
2022-09-22T22:47:08.482Z,6.80
2022-09-22T22:49:36.534Z,6.80
2022-09-22T22:52:04.850Z,6.80
2022-09-22T22:54:34.064Z,6.70
2022-09-22T22:57:02.351Z,6.70
2022-09-22T22:59:30.453Z,6.70
2022-09-22T23:01:58.593Z,6.70
2022-09-22T23:04:28.116Z,6.60
2022-09-22T23:06:56.446Z,6.60
2022-09-22T23:09:24.593Z,6.60
2022-09-22T23:11:55.026Z,6.60
2022-09-22T23:14:24.474Z,6.60
2022-09-22T23:16:52.873Z,6.60
2022-09-22T23:19:20.946Z,6.60
2022-09-22T23:21:51.518Z,6.50
2022-09-22T23:24:19.930Z,6.60
2022-09-22T23:26:48.301Z,6.50
2022-09-22T23:29:16.577Z,6.50
2022-09-22T23:31:45.898Z,6.40
2022-09-22T23:34:15.122Z,6.20
2022-09-22T23:36:43.364Z,6.20
2022-09-22T23:39:15.097Z,6.10
2022-09-22T23:41:43.335Z,6.10
2022-09-22T23:44:12.300Z,6.00
2022-09-22T23:46:41.232Z,6.00
2022-09-22T23:49:09.456Z,6.10
2022-09-22T23:51:38.005Z,6.00
2022-09-22T23:54:06.198Z,6.00
2022-09-22T23:56:35.894Z,6.10
2022-09-22T23:59:04.041Z,6.10
